createdAt,value
2022-10-13T00:02:26.302Z,100827.00
2022-10-13T00:05:29.138Z,100820.75
2022-10-13T00:08:31.885Z,100828.91
2022-10-13T00:11:34.681Z,100817.16
2022-10-13T00:14:37.596Z,100816.38
2022-10-13T00:17:41.838Z,100808.41
2022-10-13T00:20:47.118Z,100810.94
2022-10-13T00:23:50.231Z,100821.03
2022-10-13T00:26:53.607Z,100813.81
2022-10-13T00:29:56.854Z,100813.97
2022-10-13T00:33:00.945Z,100812.31
2022-10-13T00:36:07.145Z,100813.22
2022-10-13T00:39:10.071Z,100813.25
2022-10-13T00:42:13.975Z,100807.00
2022-10-13T00:45:23.853Z,100798.06
2022-10-13T00:48:30.347Z,100808.09
2022-10-13T00:51:35.943Z,100805.38
2022-10-13T00:54:38.963Z,100807.28
2022-10-13T00:57:46.174Z,100810.88
2022-10-13T01:00:51.779Z,100812.44
2022-10-13T01:03:55.901Z,100811.66
2022-10-13T01:06:59.224Z,100807.00
2022-10-13T01:10:03.070Z,100810.75
2022-10-13T01:13:14.737Z,100796.78
2022-10-13T01:16:28.170Z,100814.72
2022-10-13T01:20:05.140Z,100813.06
2022-10-13T01:23:34.509Z,100821.25
2022-10-13T01:26:56.719Z,100809.56
2022-10-13T01:30:15.691Z,100801.53
2022-10-13T01:33:28.058Z,100806.03
2022-10-13T01:36:38.053Z,100804.03
2022-10-13T01:39:46.071Z,100781.34
2022-10-13T01:42:55.115Z,100784.88
2022-10-13T01:46:05.595Z,100780.28
2022-10-13T01:49:11.425Z,100777.59
2022-10-13T01:52:19.457Z,100769.66
2022-10-13T01:55:22.554Z,100792.25
2022-10-13T01:58:29.115Z,100791.53
2022-10-13T02:01:47.822Z,100792.53
2022-10-13T02:05:02.157Z,100786.31
2022-10-13T02:08:10.698Z,100778.34
2022-10-13T02:11:16.787Z,100778.34
2022-10-13T02:14:23.492Z,100784.59
2022-10-13T02:17:29.179Z,100781.88
2022-10-13T02:20:33.095Z,100782.66
2022-10-13T02:23:36.908Z,100786.22
2022-10-13T02:26:41.981Z,100777.13
2022-10-13T02:29:53.205Z,100784.31
2022-10-13T02:32:57.467Z,100776.94
2022-10-13T02:36:00.220Z,100780.47
2022-10-13T02:39:03.308Z,100775.09
2022-10-13T02:42:06.777Z,100776.88
2022-10-13T02:45:11.046Z,100784.19
2022-10-13T02:48:15.934Z,100788.81
2022-10-13T02:51:19.231Z,100775.34
2022-10-13T02:54:21.929Z,100782.81
2022-10-13T02:57:24.700Z,100778.34
2022-10-13T03:00:27.636Z,100770.94
2022-10-13T03:03:32.099Z,100777.13
2022-10-13T03:06:35.553Z,100756.63
2022-10-13T03:09:38.702Z,100774.97
2022-10-13T03:12:41.407Z,100765.06
2022-10-13T03:15:44.543Z,100769.94
2022-10-13T03:18:48.600Z,100759.34
2022-10-13T03:21:51.337Z,100753.91
2022-10-13T03:24:54.502Z,100751.16
2022-10-13T03:27:57.698Z,100750.00
2022-10-13T03:31:05.519Z,100757.19
2022-10-13T03:34:10.114Z,100756.25
2022-10-13T03:37:12.819Z,100759.75
2022-10-13T03:40:15.937Z,100756.16
2022-10-13T03:43:18.639Z,100758.97
2022-10-13T03:46:22.272Z,100750.28
2022-10-13T03:49:26.627Z,100762.63
2022-10-13T03:52:29.673Z,100758.97
2022-10-13T03:55:32.384Z,100753.78
2022-10-13T03:58:36.425Z,100743.75
2022-10-13T04:01:40.230Z,100750.00
2022-10-13T04:04:44.719Z,100741.88
2022-10-13T04:07:47.524Z,100735.56
2022-10-13T04:10:50.244Z,100741.03
2022-10-13T04:13:53.454Z,100741.31
2022-10-13T04:16:56.816Z,100742.13
2022-10-13T04:20:01.855Z,100740.22
2022-10-13T04:23:04.538Z,100742.94
2022-10-13T04:26:08.276Z,100746.63
2022-10-13T04:29:12.809Z,100759.19
2022-10-13T04:32:15.985Z,100749.25
2022-10-13T04:35:20.086Z,100751.88
2022-10-13T04:38:23.204Z,100750.38
2022-10-13T04:41:26.097Z,100751.78
2022-10-13T04:44:29.583Z,100754.59
2022-10-13T04:47:36.751Z,100747.41
2022-10-13T04:50:41.571Z,100749.31
2022-10-13T04:53:45.481Z,100756.47
2022-10-13T04:56:48.238Z,100752.97
2022-10-13T04:59:51.420Z,100752.97
2022-10-13T05:02:54.113Z,100751.22
2022-10-13T05:05:58.562Z,100750.38
2022-10-13T05:09:01.739Z,100753.22
2022-10-13T05:12:04.948Z,100762.38
2022-10-13T05:15:08.869Z,100761.59
2022-10-13T05:18:11.658Z,100755.50
2022-10-13T05:21:18.275Z,100758.19
2022-10-13T05:24:30.873Z,100754.56
2022-10-13T05:27:33.712Z,100760.78
2022-10-13T05:30:36.794Z,100761.59
2022-10-13T05:33:42.349Z,100757.94
2022-10-13T05:36:46.532Z,100749.69
2022-10-13T05:39:49.683Z,100750.38
2022-10-13T05:42:53.606Z,100748.56
2022-10-13T05:45:56.949Z,100747.63
2022-10-13T05:48:59.979Z,100743.19
2022-10-13T05:52:10.062Z,100733.28
2022-10-13T05:55:17.383Z,100733.16
2022-10-13T05:58:20.504Z,100735.81
2022-10-13T06:01:27.343Z,100729.56
2022-10-13T06:04:35.318Z,100736.56
2022-10-13T06:07:39.434Z,100736.44
2022-10-13T06:10:42.834Z,100735.44
2022-10-13T06:13:45.984Z,100726.28
2022-10-13T06:16:48.674Z,100722.63
2022-10-13T06:19:51.725Z,100725.22
2022-10-13T06:22:56.724Z,100723.31
2022-10-13T06:26:00.086Z,100711.38
2022-10-13T06:29:03.391Z,100714.16
2022-10-13T06:32:07.104Z,100715.75
2022-10-13T06:35:11.088Z,100707.44
2022-10-13T06:38:15.270Z,100710.72
2022-10-13T06:41:19.018Z,100710.25
2022-10-13T06:44:22.083Z,100719.00
2022-10-13T06:47:24.830Z,100723.47
2022-10-13T06:50:28.086Z,100718.78
2022-10-13T06:53:32.739Z,100720.56
2022-10-13T06:56:35.806Z,100718.53
2022-10-13T06:59:38.999Z,100723.75
2022-10-13T07:02:42.218Z,100731.53
2022-10-13T07:05:45.364Z,100722.50
2022-10-13T07:08:49.852Z,100718.03
2022-10-13T07:11:52.916Z,100724.34
2022-10-13T07:14:56.088Z,100699.78
2022-10-13T07:17:59.169Z,100694.41
2022-10-13T07:21:02.381Z,100695.16
2022-10-13T07:24:08.238Z,100697.72
2022-10-13T07:27:10.937Z,100710.59
2022-10-13T07:30:14.623Z,100719.25
2022-10-13T07:33:17.330Z,100710.94
2022-10-13T07:36:21.033Z,100712.94
2022-10-13T07:39:26.085Z,100710.75
2022-10-13T07:42:29.394Z,100715.03
2022-10-13T07:45:32.189Z,100710.53
2022-10-13T07:48:36.503Z,100697.13
2022-10-13T07:51:39.236Z,100715.72
2022-10-13T07:54:44.092Z,100721.88
2022-10-13T07:57:46.834Z,100706.84
2022-10-13T08:00:57.553Z,100708.53
2022-10-13T08:04:00.973Z,100706.13
2022-10-13T08:07:05.166Z,100693.19
2022-10-13T08:10:10.606Z,100680.94
2022-10-13T08:13:14.068Z,100679.47
2022-10-13T08:16:16.997Z,100681.88
2022-10-13T08:19:22.341Z,100672.91
2022-10-13T08:22:28.194Z,100693.34
2022-10-13T08:25:38.421Z,100691.56
2022-10-13T08:28:48.617Z,100685.88
2022-10-13T08:32:00.931Z,100692.25
2022-10-13T08:35:04.360Z,100698.94
2022-10-13T08:38:08.085Z,100699.81
2022-10-13T08:41:19.123Z,100684.53
2022-10-13T08:47:53.801Z,100685.41
2022-10-13T08:51:01.931Z,100677.25
2022-10-13T08:54:06.561Z,100670.09
2022-10-13T08:57:12.120Z,100654.88
2022-10-13T09:00:15.888Z,100656.47
2022-10-13T09:03:25.788Z,100647.13
2022-10-13T09:06:33.573Z,100650.03
2022-10-13T09:09:37.203Z,100644.72
2022-10-13T09:12:42.322Z,100642.47
2022-10-13T09:15:45.792Z,100649.72
2022-10-13T09:18:48.813Z,100652.75
2022-10-13T09:21:54.051Z,100659.63
2022-10-13T09:25:10.406Z,100658.00
2022-10-13T09:28:20.718Z,100658.44
2022-10-13T09:31:26.385Z,100657.06
2022-10-13T09:34:30.486Z,100654.97
2022-10-13T09:37:35.085Z,100658.50
2022-10-13T09:40:41.014Z,100655.84
2022-10-13T09:44:00.602Z,100634.41
2022-10-13T09:47:05.107Z,100651.97
2022-10-13T09:50:18.579Z,100647.06
2022-10-13T09:53:26.507Z,100647.59
2022-10-13T09:56:35.983Z,100653.13
2022-10-13T09:59:44.493Z,100650.50
2022-10-13T10:02:53.794Z,100649.44
2022-10-13T10:05:58.815Z,100645.13
2022-10-13T10:09:06.798Z,100651.47
2022-10-13T10:12:16.967Z,100653.75
2022-10-13T10:15:25.422Z,100650.97
2022-10-13T10:18:37.971Z,100646.16
2022-10-13T10:21:47.212Z,100659.56
2022-10-13T10:24:55.181Z,100655.06
2022-10-13T10:28:18.179Z,100646.16
2022-10-13T10:31:36.922Z,100652.22
2022-10-13T10:34:48.123Z,100652.50
2022-10-13T10:38:06.030Z,100652.81
2022-10-13T10:41:17.778Z,100645.16
2022-10-13T10:44:22.929Z,100657.81
2022-10-13T10:47:31.180Z,100643.22
2022-10-13T10:50:36.159Z,100632.34
2022-10-13T10:53:57.451Z,100629.31
2022-10-13T10:57:07.644Z,100627.41
2022-10-13T11:00:15.151Z,100611.50
2022-10-13T11:03:29.685Z,100618.44
2022-10-13T11:06:35.718Z,100609.66
2022-10-13T11:10:05.431Z,100606.56
2022-10-13T11:13:20.146Z,100607.81
2022-10-13T11:16:31.103Z,100596.69
2022-10-13T11:19:36.784Z,100599.50
2022-10-13T11:22:39.436Z,100593.28
2022-10-13T11:25:44.533Z,100582.28
2022-10-13T11:28:48.994Z,100582.38
2022-10-13T11:31:54.799Z,100587.84
2022-10-13T11:35:02.102Z,100583.06
2022-10-13T11:38:22.268Z,100575.69
2022-10-13T11:41:30.232Z,100571.81
2022-10-13T11:44:37.651Z,100580.63
2022-10-13T11:51:26.056Z,100574.00
2022-10-13T11:54:34.963Z,100569.44
2022-10-13T11:57:37.901Z,100572.16
2022-10-13T12:00:54.965Z,100558.53
2022-10-13T12:03:58.588Z,100560.38
2022-10-13T12:07:05.158Z,100553.16
2022-10-13T12:10:17.166Z,100542.09
2022-10-13T12:13:22.985Z,100543.59
2022-10-13T12:16:25.981Z,100536.50
2022-10-13T12:19:31.715Z,100535.06
2022-10-13T12:22:40.194Z,100529.88
2022-10-13T12:25:49.408Z,100527.78
2022-10-13T12:28:55.838Z,100522.97
2022-10-13T12:31:59.870Z,100508.69
2022-10-13T12:35:17.146Z,100513.28
2022-10-13T12:38:24.255Z,100507.47
2022-10-13T12:41:30.201Z,100500.09
2022-10-13T12:44:33.788Z,100500.09
2022-10-13T12:47:39.019Z,100493.75
2022-10-13T12:50:42.129Z,100491.53
2022-10-13T12:53:47.880Z,100491.25
2022-10-13T12:56:56.127Z,100485.44
2022-10-13T12:59:59.666Z,100487.81
2022-10-13T13:03:04.933Z,100490.16
2022-10-13T13:06:23.148Z,100481.97
2022-10-13T13:09:29.018Z,100486.94
2022-10-13T13:12:32.332Z,100473.81
2022-10-13T13:15:37.657Z,100472.63
2022-10-13T13:18:42.558Z,100479.81
2022-10-13T13:21:45.593Z,100471.63
2022-10-13T13:24:51.108Z,100474.97
2022-10-13T13:27:54.544Z,100475.47
2022-10-13T13:30:57.595Z,100469.84
2022-10-13T13:34:00.650Z,100471.78
2022-10-13T13:37:03.925Z,100474.22
2022-10-13T13:40:17.153Z,100475.88
2022-10-13T13:43:20.059Z,100487.59
2022-10-13T13:46:25.755Z,100484.66
2022-10-13T13:49:28.844Z,100480.94
2022-10-13T13:52:31.935Z,100477.81
2022-10-13T13:55:36.458Z,100473.22
2022-10-13T13:58:39.159Z,100470.50
2022-10-13T14:01:42.391Z,100468.72
2022-10-13T14:04:46.018Z,100467.94
2022-10-13T14:07:48.804Z,100457.72
2022-10-13T14:10:52.940Z,100450.84
2022-10-13T14:13:58.003Z,100460.22
2022-10-13T14:17:01.851Z,100457.66
2022-10-13T14:20:05.345Z,100462.06
2022-10-13T14:23:08.007Z,100452.41
2022-10-13T14:26:12.154Z,100436.63
2022-10-13T14:29:15.245Z,100443.44
2022-10-13T14:32:18.151Z,100449.22
2022-10-13T14:35:21.450Z,100434.19
2022-10-13T14:38:24.241Z,100421.81
2022-10-13T14:41:28.438Z,100419.66
2022-10-13T14:44:31.307Z,100393.91
2022-10-13T14:47:34.063Z,100400.34
2022-10-13T14:50:38.681Z,100402.50
2022-10-13T14:53:43.042Z,100414.88
2022-10-13T14:56:47.121Z,100423.94
2022-10-13T14:59:49.908Z,100417.00
2022-10-13T15:02:52.656Z,100430.38
2022-10-13T15:05:55.614Z,100401.97
2022-10-13T15:08:58.824Z,100433.59
2022-10-13T15:12:03.344Z,100433.09
2022-10-13T15:15:06.887Z,100433.19
2022-10-13T15:18:09.830Z,100430.94
2022-10-13T15:21:12.717Z,100438.41
2022-10-13T15:24:15.888Z,100435.16
2022-10-13T15:27:20.092Z,100433.69
2022-10-13T15:30:22.813Z,100426.03
2022-10-13T15:33:25.569Z,100414.75
2022-10-13T15:36:28.855Z,100418.53
2022-10-13T15:39:32.304Z,100423.44
2022-10-13T15:42:36.402Z,100434.38
2022-10-13T15:45:39.633Z,100438.44
2022-10-13T15:48:42.747Z,100438.19
2022-10-13T15:51:46.400Z,100443.81
2022-10-13T15:54:51.356Z,100441.00
2022-10-13T15:57:55.729Z,100440.78
2022-10-13T16:00:58.531Z,100430.88
2022-10-13T16:04:02.534Z,100434.75
2022-10-13T16:07:05.518Z,100429.47
2022-10-13T16:10:09.472Z,100417.09
2022-10-13T16:13:16.298Z,100389.09
2022-10-13T16:16:19.776Z,100413.78
2022-10-13T16:19:23.279Z,100413.44
2022-10-13T16:22:26.007Z,100405.81
2022-10-13T16:25:29.376Z,100418.16
2022-10-13T16:28:33.603Z,100412.19
2022-10-13T16:31:36.443Z,100415.63
2022-10-13T16:34:39.237Z,100425.94
2022-10-13T16:37:41.987Z,100424.97
2022-10-13T16:40:44.691Z,100421.88
2022-10-13T16:43:49.195Z,100422.91
2022-10-13T16:46:53.869Z,100432.25
2022-10-13T16:49:56.645Z,100426.81
2022-10-13T16:52:59.661Z,100426.44
2022-10-13T16:56:02.996Z,100388.84
2022-10-13T16:59:08.317Z,100422.78
2022-10-13T17:02:15.264Z,100429.25
2022-10-13T17:05:18.073Z,100428.06
2022-10-13T17:08:20.837Z,100436.03
2022-10-13T17:11:26.542Z,100435.84
2022-10-13T17:14:30.636Z,100434.91
2022-10-13T17:17:33.470Z,100438.66
2022-10-13T17:20:36.156Z,100440.34
2022-10-13T17:23:38.997Z,100442.09
2022-10-13T17:26:41.882Z,100443.75
2022-10-13T17:29:46.443Z,100438.41
2022-10-13T17:32:49.797Z,100442.88
2022-10-13T17:35:52.786Z,100443.59
2022-10-13T17:38:57.423Z,100442.53
2022-10-13T17:42:00.256Z,100448.88
2022-10-13T17:45:05.726Z,100450.72
2022-10-13T17:48:08.606Z,100458.69
2022-10-13T17:51:13.606Z,100458.69
2022-10-13T17:54:16.876Z,100453.69
2022-10-13T17:57:19.878Z,100456.50
2022-10-13T18:00:24.086Z,100451.34
2022-10-13T18:03:26.776Z,100453.44
2022-10-13T18:06:35.220Z,100449.13
2022-10-13T18:09:41.067Z,100428.59
2022-10-13T18:12:44.513Z,100425.94
2022-10-13T18:15:48.607Z,100413.28
2022-10-13T18:18:52.933Z,100410.25
2022-10-13T18:21:55.667Z,100426.47
2022-10-13T18:24:58.646Z,100447.38
2022-10-13T18:28:01.340Z,100444.63
2022-10-13T18:31:07.084Z,100434.63
2022-10-13T18:34:12.775Z,100430.13
2022-10-13T18:37:15.551Z,100432.03
2022-10-13T18:40:18.441Z,100427.81
2022-10-13T18:43:21.358Z,100430.47
2022-10-13T18:46:26.333Z,100424.06
2022-10-13T18:49:32.010Z,100423.09
2022-10-13T18:52:34.774Z,100424.88
2022-10-13T18:55:41.039Z,100420.63
2022-10-13T18:58:43.909Z,100425.19
2022-10-13T19:01:48.695Z,100428.88
2022-10-13T19:04:51.829Z,100423.44
2022-10-13T19:07:54.573Z,100419.75
2022-10-13T19:10:57.945Z,100416.13
2022-10-13T19:14:01.856Z,100417.91
2022-10-13T19:17:05.931Z,100422.47
2022-10-13T19:20:09.606Z,100429.75
2022-10-13T19:23:16.742Z,100425.19
2022-10-13T19:26:23.675Z,100432.38
2022-10-13T19:29:26.351Z,100424.22
2022-10-13T19:32:30.410Z,100429.44
2022-10-13T19:35:33.497Z,100425.59
2022-10-13T19:38:36.386Z,100427.47
2022-10-13T19:41:39.444Z,100421.34
2022-10-13T19:44:42.376Z,100418.97
2022-10-13T19:47:46.411Z,100411.94
2022-10-13T19:50:49.321Z,100420.19
2022-10-13T19:53:52.118Z,100423.31
2022-10-13T19:56:55.146Z,100428.97
2022-10-13T19:59:58.213Z,100427.19
2022-10-13T20:03:02.870Z,100436.13
2022-10-13T20:06:06.869Z,100427.66
2022-10-13T20:09:09.569Z,100424.75
2022-10-13T20:12:12.358Z,100434.44
2022-10-13T20:15:15.040Z,100431.78
2022-10-13T20:18:19.180Z,100438.03
2022-10-13T20:21:22.719Z,100429.75
2022-10-13T20:24:25.681Z,100425.09
2022-10-13T20:27:28.430Z,100430.63
2022-10-13T20:30:31.378Z,100439.59
2022-10-13T20:33:35.768Z,100428.72
2022-10-13T20:36:40.052Z,100434.94
2022-10-13T20:39:42.979Z,100434.16
2022-10-13T20:42:50.806Z,100429.50
2022-10-13T20:46:00.627Z,100434.00
2022-10-13T20:49:10.833Z,100440.19
2022-10-13T20:52:14.428Z,100437.47
2022-10-13T20:55:17.775Z,100437.34
2022-10-13T20:58:20.603Z,100433.66
2022-10-13T21:01:24.849Z,100440.00
2022-10-13T21:04:29.189Z,100433.66
2022-10-13T21:07:31.878Z,100432.72
2022-10-13T21:10:36.998Z,100429.03
2022-10-13T21:13:41.376Z,100433.50
2022-10-13T21:16:44.154Z,100433.41
2022-10-13T21:19:48.437Z,100437.97
2022-10-13T21:22:51.124Z,100438.97
2022-10-13T21:25:53.868Z,100445.25
2022-10-13T21:28:57.320Z,100433.75
2022-10-13T21:32:00.279Z,100442.38
2022-10-13T21:35:04.888Z,100440.53
2022-10-13T21:38:07.930Z,100433.16
2022-10-13T21:41:13.225Z,100441.31
2022-10-13T21:44:16.042Z,100440.53
2022-10-13T21:47:19.020Z,100437.88
2022-10-13T21:50:23.491Z,100438.97
2022-10-13T21:53:26.182Z,100425.22
2022-10-13T21:56:29.766Z,100424.34
2022-10-13T21:59:32.776Z,100424.63
2022-10-13T22:02:36.611Z,100424.66
2022-10-13T22:05:40.703Z,100433.66
2022-10-13T22:08:45.184Z,100431.16
2022-10-13T22:11:50.060Z,100428.72
2022-10-13T22:14:55.868Z,100435.19
2022-10-13T22:17:58.988Z,100434.31
2022-10-13T22:21:04.855Z,100430.97
2022-10-13T22:24:10.375Z,100438.09
2022-10-13T22:27:13.104Z,100432.75
2022-10-13T22:30:16.057Z,100430.03
2022-10-13T22:33:19.393Z,100430.09
2022-10-13T22:36:26.015Z,100439.22
2022-10-13T22:39:28.982Z,100427.47
2022-10-13T22:42:31.688Z,100423.97
2022-10-13T22:45:34.415Z,100427.66
2022-10-13T22:48:40.571Z,100420.44
2022-10-13T22:51:45.420Z,100416.94
2022-10-13T22:54:48.107Z,100414.38
2022-10-13T22:57:51.024Z,100420.81
2022-10-13T23:00:54.152Z,100416.41
2022-10-13T23:03:59.000Z,100412.00
2022-10-13T23:07:03.138Z,100412.94
2022-10-13T23:10:06.876Z,100416.75
2022-10-13T23:13:09.578Z,100412.19
2022-10-13T23:16:15.581Z,100407.78
2022-10-13T23:19:19.494Z,100413.38
2022-10-13T23:22:23.901Z,100416.19
2022-10-13T23:25:26.626Z,100419.97
2022-10-13T23:28:29.685Z,100415.41
2022-10-13T23:31:32.783Z,100413.66
2022-10-13T23:34:35.478Z,100414.44
2022-10-13T23:37:39.856Z,100421.53
2022-10-13T23:40:42.871Z,100416.38
2022-10-13T23:43:45.823Z,100423.56
2022-10-13T23:46:48.858Z,100414.44
2022-10-13T23:49:51.738Z,100417.94
2022-10-13T23:52:57.061Z,100422.19
2022-10-13T23:56:02.168Z,100412.34
2022-10-13T23:59:06.036Z,100403.81
